Flight Track Log - Related Links

Times and Time Zones

All times are in EDT time to prevent confusion due to time zone crossing. See the TAM3020 flight status page for this flight to view local times or setup timezone preferences in your user account.


Time Position Orientation Groundspeed Altitude Reporting Facility
EDT Latitude Longitude Course Direction KTS MPH feet Rate Location/Type
Sun 07:41:57 PM -25.5690 -48.9950 84° East 258 297 8,400  Level FlightAware ADS-B
Sun 07:42:37 PM -25.5650 -48.9350 86° East 316 364 10,700 2,400 Climbing FlightAware ADS-B
Sun 07:43:17 PM -25.5570 -48.8350 85° East 376 433 11,600 1,976 Climbing FlightAware ADS-B
Sun 07:44:02 PM -25.5500 -48.7380 85° East 392 451 13,500 2,541 Climbing FlightAware ADS-B
Sun 07:44:42 PM -25.5430 -48.6580 84° East 399 459 15,200 2,612 Climbing FlightAware ADS-B
Sun 07:45:27 PM -25.5370 -48.5720 86° East 402 463 17,200 2,329 Climbing FlightAware ADS-B
Sun 07:46:07 PM -25.5230 -48.4870 80° East 412 474 18,500 1,950 Climbing FlightAware ADS-B
Sun 07:46:47 PM -25.5010 -48.4010 74° East 423 487 19,800 1,765 Climbing FlightAware ADS-B
Sun 07:47:32 PM -25.4770 -48.3050 75° East 437 503 21,000 1,482 Climbing FlightAware ADS-B
Sun 07:48:12 PM -25.4550 -48.2180 74° East 456 525 21,900 1,482 Climbing FlightAware ADS-B
Sun 07:48:57 PM -25.4290 -48.1140 75° East 464 534 23,100 1,624 Climbing FlightAware ADS-B
Sun 07:49:37 PM -25.4060 -48.0230 74° East 472 543 24,200 1,500 Climbing FlightAware ADS-B
Sun 07:50:17 PM -25.3820 -47.9290 74° East 481 554 25,100 2,047 Climbing FlightAware ADS-B
Sun 07:51:02 PM -25.3580 -47.8320 75° East 463 533 27,100 2,612 Climbing FlightAware ADS-B
Sun 07:51:42 PM -25.3350 -47.7440 74° East 449 517 28,800 1,341 Climbing FlightAware ADS-B
Sun 07:52:27 PM -25.3100 -47.6440 75° East 455 524 29,000 141 Climbing FlightAware ADS-B
Sun 07:53:07 PM -25.2860 -47.5520 74° East 454 522 29,000  Level FlightAware ADS-B
Sun 07:53:47 PM -25.2640 -47.4640 75° East 458 527 29,000  Level FlightAware ADS-B
Sun 07:54:27 PM -25.2390 -47.3670 74° East 460 529 29,000  Level FlightAware ADS-B
Sun 07:55:12 PM -25.2060 -47.2760 68° East 453 521 29,000  Level FlightAware ADS-B
Sun 07:55:57 PM -25.1350 -47.2160 37° Northeast 428 493 29,000  Level FlightAware ADS-B
Sun 07:56:37 PM -25.0560 -47.1850 20° North 428 493 29,000 -494 Level FlightAware ADS-B
Sun 07:57:22 PM -24.9740 -47.1520 20° North 435 501 28,300 -1,271 Descending FlightAware ADS-B
Sun 07:58:02 PM -24.9030 -47.1240 20° North 423 487 27,200 -1,950 Descending FlightAware ADS-B
Sun 07:58:42 PM -24.8240 -47.0930 20° North 422 486 25,700 -2,100 Descending FlightAware ADS-B
Sun 07:59:22 PM -24.7500 -47.0650 19° North 419 482 24,400 -1,906 Descending FlightAware ADS-B
Sun 08:00:07 PM -24.6720 -47.0340 20° North 417 480 23,000 -1,933 Descending FlightAware ADS-B
Sun 08:00:52 PM -24.5880 -47.0010 20° North 412 474 21,500 -2,000 Descending FlightAware ADS-B
Sun 08:01:22 PM -24.5340 -46.9800 19° North 408 470 20,500 -1,725 Descending FlightAware ADS-B
Sun 08:02:12 PM -24.4540 -46.9320 29° Northeast 400 460 19,200 -1,579 Descending FlightAware ADS-B
Sun 08:02:57 PM -24.3830 -46.8810 33° Northeast 383 441 18,000 -1,575 Descending FlightAware ADS-B
Sun 08:03:32 PM -24.3320 -46.8440 33° Northeast 371 427 17,100 -1,440 Descending FlightAware ADS-B
Sun 08:04:12 PM -24.2730 -46.8020 33° Northeast 359 413 16,200 -1,000 Descending FlightAware ADS-B
Sun 08:05:02 PM -24.2080 -46.7560 33° Northeast 333 383 15,600 -1,000 Descending FlightAware ADS-B
Sun 08:05:42 PM -24.1570 -46.7190 34° Northeast 327 376 14,700 -1,341 Descending FlightAware ADS-B
Sun 08:06:27 PM -24.1030 -46.6800 33° Northeast 325 374 13,700 -1,412 Descending FlightAware ADS-B
Sun 08:07:07 PM -24.0490 -46.6420 33° Northeast 325 374 12,700 -1,271 Descending FlightAware ADS-B
Sun 08:07:52 PM -23.9990 -46.6060 33° Northeast 321 369 11,900 -1,200 Descending FlightAware ADS-B
Sun 08:08:32 PM -23.9490 -46.5710 33° Northeast 311 358 11,000 -1,275 Descending FlightAware ADS-B
Sun 08:09:12 PM -23.8980 -46.5430 27° Northeast 297 342 10,200 -1,114 Descending FlightAware ADS-B
Sun 08:09:42 PM -23.8580 -46.5610 338° Northwest 270 311 9,700 -933 Descending FlightAware ADS-B
Sun 08:09:57 PM -23.8440 -46.5760 316° Northwest 269 310 9,500 -600 Descending FlightAware ADS-B
Sun 08:10:22 PM -23.8230 -46.5960 319° Northwest 266 306 9,300 -545 Descending FlightAware ADS-B
Sun 08:10:52 PM -23.7930 -46.6260 318° Northwest 260 299 9,000 -545 Descending FlightAware ADS-B
Sun 08:11:17 PM -23.7700 -46.6470 320° Northwest 263 303 8,800 -655 Descending FlightAware ADS-B
Sun 08:11:47 PM -23.7400 -46.6780 317° Northwest 259 298 8,400 -700 Descending FlightAware ADS-B
Sun 08:12:17 PM -23.7130 -46.7030 320° Northwest 253 291 8,100 -800 Descending FlightAware ADS-B
Sun 08:12:32 PM -23.7020 -46.7140 318° Northwest 252 290 7,800 -900 Descending FlightAware ADS-B
Sun 08:12:57 PM -23.6790 -46.7360 319° Northwest 244 281 7,500 -750 Descending FlightAware ADS-B
Sun 08:13:12 PM -23.6670 -46.7480 318° Northwest 237 273 7,300 -750 Descending FlightAware ADS-B
Sun 08:13:37 PM -23.6470 -46.7690 316° Northwest 228 262 7,000 -982 Descending FlightAware ADS-B
Sun 08:14:07 PM -23.6240 -46.7920 318° Northwest 223 257 6,400 -1,200 Descending FlightAware ADS-B
Sun 08:14:37 PM -23.6020 -46.8130 319° Northwest 225 259 5,800 -1,200 Descending FlightAware ADS-B
Sun 08:15:02 PM -23.5800 -46.8330 320° Northwest 226 260 5,300 -1,050 Descending FlightAware ADS-B
Sun 08:15:17 PM -23.5680 -46.8360 347° North 229 264 5,100 -533 Descending FlightAware ADS-B
Sun 08:15:47 PM -23.5410 -46.8170 33° Northeast 219 252 4,900 -218 Descending FlightAware ADS-B
Sun 08:16:12 PM -23.5290 -46.7940 60° Northeast 217 250 4,900  Level FlightAware ADS-B
Sun 08:16:42 PM -23.5140 -46.7650 61° Northeast 208 239 4,900 -257 Level FlightAware ADS-B
Sun 08:17:22 PM -23.5170 -46.7330 96° East 174 200 4,600 -545 Descending FlightAware ADS-B
Sun 08:17:37 PM -23.5270 -46.7260 147° Southeast 158 182 4,400 -800 Descending FlightAware ADS-B
Sun 08:17:52 PM -23.5350 -46.7200 145° Southeast 156 180 4,200 -750 Descending FlightAware ADS-B
Sun 08:18:17 PM -23.5520 -46.7080 147° Southeast 153 176 3,900 -764 Descending FlightAware ADS-B
Sun 08:18:47 PM -23.5690 -46.6970 149° Southeast 135 155 3,500 -700 Descending FlightAware ADS-B
Sun 08:19:17 PM -23.5850 -46.6850 145° Southeast 134 154 3,200 -655 Descending FlightAware ADS-B
Sun 08:19:42 PM -23.5980 -46.6760 148° Southeast 134 154 2,900 -600 Descending FlightAware ADS-B
Sun 08:19:57 PM -23.6040 -46.6720 149° Southeast 134 154 2,800 -600 Descending FlightAware ADS-B
Sun 08:20:22 PM -23.6170 -46.6630 148° Southeast 134 154 2,500 -462 Descending FlightAware ADS-B
Sun 08:21:02 PM -23.6330 -46.6520 148° Southeast 134 154 2,300 -300 Descending FlightAware ADS-B
Sun 08:23:00 PM -23.6267 -46.6554 334° Northwest  Level Estimated

Login

Don't have an account? Register now (free) for customized features, flight alerts, and more!